createdAt,value
2022-09-25T00:01:22.125Z,83.50
2022-09-25T00:03:49.072Z,83.50
2022-09-25T00:06:17.569Z,83.50
2022-09-25T00:08:44.637Z,83.50
2022-09-25T00:11:14.706Z,83.50
2022-09-25T00:13:43.640Z,83.60
2022-09-25T00:16:12.652Z,83.50
2022-09-25T00:18:58.512Z,83.50
2022-09-25T00:21:32.341Z,83.40
2022-09-25T00:24:09.690Z,83.30
2022-09-25T00:26:44.268Z,83.30
2022-09-25T00:29:19.296Z,83.40
2022-09-25T00:31:46.197Z,83.30
2022-09-25T00:34:13.111Z,83.30
2022-09-25T00:36:40.111Z,83.30
2022-09-25T00:39:07.156Z,83.20
2022-09-25T00:41:37.461Z,83.30
2022-09-25T00:44:27.372Z,83.30
2022-09-25T00:46:54.264Z,83.30
2022-09-25T00:49:25.941Z,83.20
2022-09-25T00:52:06.651Z,83.30
2022-09-25T00:54:45.819Z,83.10
2022-09-25T00:57:18.497Z,83.10
2022-09-25T00:59:49.513Z,83.10
2022-09-25T01:02:28.427Z,83.10
2022-09-25T01:05:00.259Z,83.20
2022-09-25T01:07:27.268Z,83.10
2022-09-25T01:09:59.455Z,83.10
2022-09-25T01:12:26.268Z,83.10
2022-09-25T01:14:53.143Z,83.20
2022-09-25T01:17:35.649Z,83.10
2022-09-25T01:20:16.382Z,83.00
2022-09-25T01:22:55.223Z,83.10
2022-09-25T01:25:46.448Z,83.10
2022-09-25T01:28:50.599Z,83.00
2022-09-25T01:31:27.192Z,83.00
2022-09-25T01:34:05.035Z,83.20
2022-09-25T01:37:15.281Z,83.10
2022-09-25T01:39:47.189Z,83.10
2022-09-25T01:42:18.827Z,83.30
2022-09-25T01:45:07.537Z,83.40
2022-09-25T01:47:39.908Z,83.30
2022-09-25T01:50:48.641Z,83.50
2022-09-25T01:53:22.785Z,83.20
2022-09-25T01:55:57.965Z,83.50
2022-09-25T01:59:08.866Z,83.50
2022-09-25T02:01:40.367Z,83.10
2022-09-25T02:04:25.071Z,83.50
2022-09-25T02:06:56.405Z,83.40
2022-09-25T02:09:36.303Z,83.40
2022-09-25T02:12:08.990Z,83.40
2022-09-25T02:14:44.844Z,83.30
2022-09-25T02:17:38.613Z,83.20
2022-09-25T02:20:24.775Z,83.30
2022-09-25T02:22:53.662Z,83.20
2022-09-25T02:25:33.489Z,83.30
2022-09-25T02:28:00.375Z,83.40
2022-09-25T02:30:29.318Z,83.30
2022-09-25T02:32:58.051Z,83.30
2022-09-25T02:35:28.189Z,83.30
2022-09-25T02:37:57.232Z,83.40
2022-09-25T02:40:45.443Z,83.40
2022-09-25T02:43:24.227Z,83.40
2022-09-25T02:46:06.434Z,83.40
2022-09-25T02:49:22.502Z,83.30
2022-09-25T02:52:09.561Z,83.20
2022-09-25T02:54:47.173Z,84.10
2022-09-25T02:57:21.119Z,83.30
2022-09-25T03:00:01.530Z,83.30
2022-09-25T03:02:29.793Z,83.30
2022-09-25T03:04:58.166Z,83.30
2022-09-25T03:07:25.693Z,83.40
2022-09-25T03:09:55.345Z,83.40
2022-09-25T03:12:22.071Z,83.40
2022-09-25T03:14:48.832Z,83.40
2022-09-25T03:17:17.612Z,83.40
2022-09-25T03:19:44.354Z,83.50
2022-09-25T03:22:12.034Z,83.50
2022-09-25T03:24:38.961Z,83.60
2022-09-25T03:27:05.677Z,83.60
2022-09-25T03:29:33.435Z,83.70
2022-09-25T03:32:00.386Z,83.70
2022-09-25T03:34:27.146Z,83.80
2022-09-25T03:36:53.930Z,83.90
2022-09-25T03:39:20.818Z,84.00
2022-09-25T03:41:48.047Z,84.00
2022-09-25T03:44:14.877Z,84.00
2022-09-25T03:46:41.542Z,84.00
2022-09-25T03:49:10.495Z,84.10
2022-09-25T03:51:37.215Z,84.30
2022-09-25T03:54:04.197Z,84.20
2022-09-25T03:56:31.069Z,84.10
2022-09-25T03:58:57.938Z,84.10
2022-09-25T04:01:26.576Z,84.20
2022-09-25T04:03:54.083Z,84.20
2022-09-25T04:06:24.499Z,84.30
2022-09-25T04:08:52.360Z,84.20
2022-09-25T04:11:21.937Z,84.20
2022-09-25T04:13:48.698Z,84.20
2022-09-25T04:16:21.249Z,84.20
2022-09-25T04:18:48.558Z,85.30
2022-09-25T04:21:15.364Z,85.30
2022-09-25T04:23:42.161Z,85.30
2022-09-25T04:26:12.454Z,85.30
2022-09-25T04:28:45.433Z,85.20
2022-09-25T04:31:12.140Z,85.30
2022-09-25T04:33:48.348Z,85.20
2022-09-25T04:36:20.893Z,85.10
2022-09-25T04:38:48.465Z,85.10
2022-09-25T04:41:19.709Z,85.10
2022-09-25T04:43:46.650Z,85.10
2022-09-25T04:46:19.992Z,85.00
2022-09-25T04:48:48.029Z,85.10
2022-09-25T04:51:14.842Z,85.10
2022-09-25T04:53:41.800Z,85.30
2022-09-25T04:56:14.687Z,85.50
2022-09-25T04:58:46.319Z,85.50
2022-09-25T05:01:13.087Z,85.60
2022-09-25T05:03:43.199Z,85.60
2022-09-25T05:06:10.033Z,85.60
2022-09-25T05:08:36.868Z,85.60
2022-09-25T05:11:03.995Z,85.70
2022-09-25T05:13:30.948Z,85.70
2022-09-25T05:15:58.163Z,85.60
2022-09-25T05:18:25.388Z,85.60
2022-09-25T05:20:55.238Z,85.70
2022-09-25T05:23:22.413Z,85.70
2022-09-25T05:25:55.321Z,86.40
2022-09-25T05:28:23.593Z,85.60
2022-09-25T05:30:51.002Z,85.60
2022-09-25T05:33:21.925Z,85.60
2022-09-25T05:35:48.743Z,85.60
2022-09-25T05:38:15.785Z,85.70
2022-09-25T05:40:43.336Z,85.80
2022-09-25T05:43:10.621Z,85.80
2022-09-25T05:45:37.271Z,85.90
2022-09-25T05:48:10.735Z,86.00
2022-09-25T05:50:37.563Z,86.10
2022-09-25T05:53:05.682Z,86.20
2022-09-25T05:55:32.482Z,86.20
2022-09-25T05:58:03.763Z,86.30
2022-09-25T06:00:34.642Z,87.20
2022-09-25T06:03:02.266Z,86.40
2022-09-25T06:05:29.381Z,86.50
2022-09-25T06:07:56.532Z,86.60
2022-09-25T06:10:26.068Z,86.70
2022-09-25T06:12:58.731Z,86.80
2022-09-25T06:15:27.384Z,86.80
2022-09-25T06:17:55.533Z,86.80
2022-09-25T06:20:22.799Z,86.80
2022-09-25T06:23:07.774Z,86.80
2022-09-25T06:25:37.159Z,86.70
2022-09-25T06:28:04.412Z,86.90
2022-09-25T06:30:36.576Z,87.10
2022-09-25T06:33:10.833Z,87.20
2022-09-25T06:35:42.029Z,87.10
2022-09-25T06:38:09.141Z,86.20
2022-09-25T06:40:38.120Z,86.20
2022-09-25T06:43:06.976Z,86.20
2022-09-25T06:45:34.742Z,86.40
2022-09-25T06:48:06.300Z,87.20
2022-09-25T06:50:41.285Z,86.50
2022-09-25T06:53:08.401Z,86.50
2022-09-25T06:55:35.246Z,86.50
2022-09-25T06:58:02.495Z,86.70
2022-09-25T07:00:29.343Z,86.70
2022-09-25T07:03:17.253Z,86.80
2022-09-25T07:05:45.322Z,86.90
2022-09-25T07:08:20.993Z,86.90
2022-09-25T07:10:52.045Z,87.00
2022-09-25T07:13:24.335Z,87.00
2022-09-25T07:15:56.175Z,87.10
2022-09-25T07:18:24.410Z,87.10
2022-09-25T07:20:52.927Z,87.20
2022-09-25T07:23:21.204Z,87.30
2022-09-25T07:25:50.792Z,87.40
2022-09-25T07:28:20.016Z,87.50
2022-09-25T07:30:47.330Z,87.60
2022-09-25T07:33:14.220Z,87.50
2022-09-25T07:35:41.179Z,87.60
2022-09-25T07:38:07.993Z,87.80
2022-09-25T07:40:35.475Z,87.80
2022-09-25T07:43:03.420Z,87.90
2022-09-25T07:45:30.759Z,89.30
2022-09-25T07:48:00.679Z,90.40
2022-09-25T07:50:29.475Z,89.90
2022-09-25T07:52:56.388Z,87.80
2022-09-25T07:55:23.881Z,86.10
2022-09-25T07:57:52.022Z,82.80
2022-09-25T08:00:19.076Z,80.60
2022-09-25T08:02:54.853Z,78.50
2022-09-25T08:05:21.595Z,76.90
2022-09-25T08:07:48.318Z,75.10
2022-09-25T08:10:15.619Z,73.50
2022-09-25T08:12:43.150Z,72.70
2022-09-25T08:15:10.702Z,71.70
2022-09-25T08:17:37.516Z,70.80
2022-09-25T08:20:04.695Z,70.00
2022-09-25T08:22:31.435Z,69.40
2022-09-25T08:25:00.516Z,69.00
2022-09-25T08:27:27.253Z,68.90
2022-09-25T08:29:53.996Z,68.90
2022-09-25T08:32:20.866Z,69.00
2022-09-25T08:34:49.459Z,69.60
2022-09-25T08:37:17.140Z,69.90
2022-09-25T08:39:43.935Z,70.20
2022-09-25T08:42:30.115Z,70.80
2022-09-25T08:45:21.613Z,71.00
2022-09-25T08:48:11.344Z,71.60
2022-09-25T08:50:39.487Z,72.00
2022-09-25T08:53:18.131Z,72.70
2022-09-25T08:56:03.907Z,72.90
2022-09-25T08:58:37.382Z,73.40
2022-09-25T09:01:08.019Z,73.30
2022-09-25T09:03:43.027Z,73.20
2022-09-25T09:06:14.905Z,72.10
2022-09-25T09:08:45.849Z,72.30
2022-09-25T09:11:42.973Z,72.30
2022-09-25T09:14:16.528Z,71.90
2022-09-25T09:17:05.265Z,71.90
2022-09-25T09:19:32.032Z,71.60
2022-09-25T09:22:08.723Z,71.30
2022-09-25T09:25:09.298Z,70.70
2022-09-25T09:27:42.652Z,70.70
2022-09-25T09:30:23.563Z,70.20
2022-09-25T09:33:17.149Z,69.80
2022-09-25T09:36:09.169Z,70.40
2022-09-25T09:39:13.691Z,70.80
2022-09-25T09:41:55.611Z,70.50
2022-09-25T09:44:34.654Z,70.50
2022-09-25T09:47:27.793Z,70.30
2022-09-25T09:50:16.277Z,70.40
2022-09-25T09:52:45.116Z,69.70
2022-09-25T09:55:39.312Z,69.80
2022-09-25T09:58:16.355Z,68.80
2022-09-25T10:00:43.339Z,68.60
2022-09-25T10:03:18.764Z,68.60
2022-09-25T10:05:48.864Z,67.70
2022-09-25T10:08:17.151Z,68.10
2022-09-25T10:10:48.531Z,67.70
2022-09-25T10:13:17.813Z,67.00
2022-09-25T10:15:55.169Z,67.80
2022-09-25T10:18:25.698Z,67.30
2022-09-25T10:20:58.602Z,67.30
2022-09-25T10:23:42.729Z,66.10
2022-09-25T10:26:41.858Z,65.20
2022-09-25T10:29:20.916Z,65.70
2022-09-25T10:31:48.567Z,65.00
2022-09-25T10:34:25.226Z,64.70
2022-09-25T10:36:56.661Z,63.90
2022-09-25T10:39:45.741Z,64.10
2022-09-25T10:42:40.911Z,65.40
2022-09-25T10:45:37.151Z,64.20
2022-09-25T10:48:53.715Z,65.20
2022-09-25T10:51:21.636Z,64.70
2022-09-25T10:53:50.424Z,63.50
2022-09-25T10:56:28.062Z,63.40
2022-09-25T10:59:01.753Z,63.60
2022-09-25T11:01:40.594Z,62.60
2022-09-25T11:04:22.237Z,61.90
2022-09-25T11:06:54.738Z,60.90
2022-09-25T11:09:23.991Z,60.70
2022-09-25T11:11:53.918Z,60.20
2022-09-25T11:14:34.786Z,60.60
2022-09-25T11:17:08.247Z,60.90
2022-09-25T11:19:37.509Z,60.70
2022-09-25T11:22:14.709Z,60.50
2022-09-25T11:25:04.769Z,59.50
2022-09-25T11:27:36.701Z,59.40
2022-09-25T11:30:10.320Z,59.90
2022-09-25T11:32:58.585Z,59.20
2022-09-25T11:35:50.429Z,59.60
2022-09-25T11:38:52.247Z,59.10
2022-09-25T11:42:00.749Z,59.70
2022-09-25T11:45:23.204Z,59.60
2022-09-25T11:48:12.762Z,59.90
2022-09-25T11:51:03.017Z,60.60
2022-09-25T11:53:48.956Z,60.90
2022-09-25T11:56:32.996Z,61.50
2022-09-25T11:59:38.340Z,61.90
2022-09-25T12:02:11.111Z,61.70
2022-09-25T12:04:54.375Z,61.80
2022-09-25T12:07:39.850Z,61.00
2022-09-25T12:10:21.424Z,61.20
2022-09-25T12:13:28.018Z,60.30
2022-09-25T12:16:38.962Z,60.20
2022-09-25T12:19:11.530Z,60.50
2022-09-25T12:22:12.057Z,60.00
2022-09-25T12:25:03.088Z,59.70
2022-09-25T12:28:04.119Z,59.50
2022-09-25T12:31:05.257Z,60.00
2022-09-25T12:33:53.539Z,59.10
2022-09-25T12:36:35.632Z,58.50
2022-09-25T12:39:21.237Z,57.50
2022-09-25T12:42:04.866Z,56.90
2022-09-25T12:44:40.903Z,56.50
2022-09-25T12:47:27.671Z,56.50
2022-09-25T12:49:59.429Z,56.20
2022-09-25T12:53:03.503Z,56.50
2022-09-25T12:55:38.925Z,56.00
2022-09-25T12:58:32.452Z,55.60
2022-09-25T13:01:11.698Z,55.30
2022-09-25T13:04:05.775Z,55.50
2022-09-25T13:07:10.181Z,55.60
2022-09-25T13:09:44.988Z,56.30
2022-09-25T13:12:34.415Z,54.90
2022-09-25T13:15:30.012Z,55.40
2022-09-25T13:17:59.128Z,55.60
2022-09-25T13:20:28.712Z,54.80
2022-09-25T13:23:19.675Z,54.80
2022-09-25T13:25:53.693Z,55.20
2022-09-25T13:28:23.661Z,54.60
2022-09-25T13:30:58.366Z,54.30
2022-09-25T13:33:26.197Z,54.20
2022-09-25T13:36:23.274Z,53.80
2022-09-25T13:39:17.853Z,53.70
2022-09-25T13:41:55.218Z,53.10
2022-09-25T13:44:41.270Z,53.70
2022-09-25T13:47:25.823Z,53.30
2022-09-25T13:50:11.031Z,53.40
2022-09-25T13:52:40.831Z,53.30
2022-09-25T13:55:13.729Z,53.10
2022-09-25T13:57:58.916Z,52.40
2022-09-25T14:00:27.765Z,52.50
2022-09-25T14:03:01.678Z,52.50
2022-09-25T14:05:35.594Z,52.90
2022-09-25T14:08:14.911Z,52.90
2022-09-25T14:10:50.614Z,53.20
2022-09-25T14:13:23.713Z,53.20
2022-09-25T14:15:51.773Z,53.60
2022-09-25T14:18:24.803Z,53.70
2022-09-25T14:21:00.769Z,53.60
2022-09-25T14:23:30.670Z,53.90
2022-09-25T14:26:02.967Z,53.90
2022-09-25T14:28:32.219Z,54.00
2022-09-25T14:31:29.797Z,54.10
2022-09-25T14:34:26.308Z,54.30
2022-09-25T14:37:05.380Z,54.80
2022-09-25T14:39:44.140Z,55.10
2022-09-25T14:42:35.469Z,55.40
2022-09-25T14:45:26.974Z,55.50
2022-09-25T14:47:59.727Z,55.70
2022-09-25T14:50:31.497Z,56.00
2022-09-25T14:53:02.506Z,55.80
2022-09-25T14:55:36.852Z,55.90
2022-09-25T14:58:09.239Z,55.90
2022-09-25T15:00:48.249Z,55.80
2022-09-25T15:03:19.198Z,55.80
2022-09-25T15:05:48.183Z,55.80
2022-09-25T15:08:44.561Z,55.70
2022-09-25T15:11:14.455Z,55.90
2022-09-25T15:13:42.245Z,56.20
2022-09-25T15:16:40.247Z,56.30
2022-09-25T15:19:30.636Z,56.20
2022-09-25T15:21:57.727Z,56.30
2022-09-25T15:24:28.561Z,56.40
2022-09-25T15:27:03.835Z,56.40
2022-09-25T15:29:38.464Z,56.70
2022-09-25T15:32:05.929Z,56.60
2022-09-25T15:34:33.401Z,56.70
2022-09-25T15:37:15.924Z,56.70
2022-09-25T15:39:45.665Z,56.80
2022-09-25T15:42:14.414Z,56.70
2022-09-25T15:44:41.914Z,57.00
2022-09-25T15:47:34.233Z,57.10
2022-09-25T15:50:13.438Z,57.20
2022-09-25T15:52:40.407Z,57.10
2022-09-25T15:55:14.588Z,57.20
2022-09-25T15:57:42.197Z,57.20
2022-09-25T16:00:36.774Z,56.80
2022-09-25T16:03:31.665Z,56.60
2022-09-25T16:06:01.798Z,56.50
2022-09-25T16:08:29.935Z,56.60
2022-09-25T16:11:09.544Z,56.30
2022-09-25T16:13:39.783Z,56.30
2022-09-25T16:16:29.563Z,56.00
2022-09-25T16:19:01.255Z,55.90
2022-09-25T16:21:33.972Z,55.90
2022-09-25T16:24:07.394Z,55.90
2022-09-25T16:26:38.577Z,56.60
2022-09-25T16:29:21.469Z,56.10
2022-09-25T16:31:51.461Z,56.40
2022-09-25T16:34:36.753Z,56.60
2022-09-25T16:37:07.158Z,56.70
2022-09-25T16:39:38.987Z,56.90
2022-09-25T16:42:29.718Z,56.90
2022-09-25T16:45:16.274Z,57.10
2022-09-25T16:47:48.850Z,57.30
2022-09-25T16:50:17.988Z,57.50
2022-09-25T16:52:45.331Z,57.70
2022-09-25T16:55:23.357Z,58.00
2022-09-25T16:57:53.257Z,58.10
2022-09-25T17:00:25.426Z,58.30
2022-09-25T17:02:52.985Z,58.40
2022-09-25T17:05:23.352Z,58.50
2022-09-25T17:07:54.843Z,58.60
2022-09-25T17:10:29.713Z,58.70
2022-09-25T17:12:59.077Z,58.80
2022-09-25T17:15:32.845Z,58.90
2022-09-25T17:18:02.513Z,59.00
2022-09-25T17:20:31.227Z,59.10
2022-09-25T17:22:58.110Z,59.20
2022-09-25T17:25:45.044Z,59.20
2022-09-25T17:28:12.928Z,59.40
2022-09-25T17:30:41.031Z,59.50
2022-09-25T17:33:15.995Z,59.60
2022-09-25T17:36:00.039Z,59.60
2022-09-25T17:38:27.338Z,59.60
2022-09-25T17:40:57.718Z,59.60
2022-09-25T17:43:26.219Z,59.70
2022-09-25T17:45:55.685Z,59.80
2022-09-25T17:48:25.302Z,59.90
2022-09-25T17:51:01.775Z,60.10
2022-09-25T17:53:31.602Z,60.20
2022-09-25T17:56:00.029Z,60.30
2022-09-25T17:58:33.645Z,60.50
2022-09-25T18:01:01.315Z,60.60
2022-09-25T18:03:30.748Z,60.80
2022-09-25T18:05:58.475Z,60.80
2022-09-25T18:08:25.231Z,60.90
2022-09-25T18:10:54.232Z,60.90
2022-09-25T18:13:21.822Z,61.00
2022-09-25T18:15:51.519Z,61.20
2022-09-25T18:18:18.522Z,61.40
2022-09-25T18:21:08.863Z,61.50
2022-09-25T18:23:38.429Z,61.70
2022-09-25T18:26:11.548Z,61.70
2022-09-25T18:28:38.429Z,61.90
2022-09-25T18:31:08.464Z,61.90
2022-09-25T18:33:35.310Z,62.20
2022-09-25T18:36:03.072Z,62.00
2022-09-25T18:38:30.168Z,62.20
2022-09-25T18:41:02.198Z,62.30
2022-09-25T18:43:32.460Z,62.60
2022-09-25T18:46:00.140Z,62.60
2022-09-25T18:48:27.462Z,62.80
2022-09-25T18:50:54.466Z,62.80
2022-09-25T18:53:21.126Z,62.90
2022-09-25T18:55:55.441Z,63.00
2022-09-25T18:58:22.239Z,63.40
2022-09-25T19:00:48.895Z,63.30
2022-09-25T19:03:15.831Z,63.40
2022-09-25T19:05:44.083Z,63.60
2022-09-25T19:08:11.419Z,63.40
2022-09-25T19:10:38.248Z,63.40
2022-09-25T19:13:04.969Z,63.50
2022-09-25T19:15:31.811Z,63.60
2022-09-25T19:17:59.545Z,63.80
2022-09-25T19:20:26.454Z,63.90
2022-09-25T19:22:53.974Z,64.10
2022-09-25T19:25:22.707Z,64.30
2022-09-25T19:27:49.705Z,64.40
2022-09-25T19:30:16.542Z,64.60
2022-09-25T19:32:43.622Z,64.80
2022-09-25T19:35:11.243Z,64.90
2022-09-25T19:37:38.916Z,65.10
2022-09-25T19:40:24.718Z,65.20
2022-09-25T19:42:51.449Z,65.10
2022-09-25T19:45:19.259Z,65.10
2022-09-25T19:47:46.441Z,65.40
2022-09-25T19:50:18.757Z,65.60
2022-09-25T19:52:50.318Z,65.70
2022-09-25T19:55:17.948Z,65.70
2022-09-25T19:57:44.763Z,65.80
2022-09-25T20:00:12.136Z,66.00
2022-09-25T20:02:38.901Z,66.00
2022-09-25T20:05:06.139Z,66.30
2022-09-25T20:07:32.913Z,66.30
2022-09-25T20:09:59.668Z,66.50
2022-09-25T20:12:26.334Z,66.60
2022-09-25T20:14:53.045Z,66.60
2022-09-25T20:17:20.313Z,66.70
2022-09-25T20:19:46.967Z,66.90
2022-09-25T20:22:13.772Z,67.00
2022-09-25T20:24:40.539Z,67.10
2022-09-25T20:27:07.667Z,67.20
2022-09-25T20:29:34.446Z,67.20
2022-09-25T20:32:01.469Z,67.30
2022-09-25T20:34:28.125Z,67.40
2022-09-25T20:36:55.599Z,67.50
2022-09-25T20:39:22.832Z,68.40
2022-09-25T20:41:50.299Z,67.80
2022-09-25T20:44:17.263Z,68.00
2022-09-25T20:46:44.290Z,68.00
2022-09-25T20:49:13.875Z,67.90
2022-09-25T20:51:41.229Z,67.90
2022-09-25T20:54:10.070Z,68.00
2022-09-25T20:56:38.625Z,68.20
2022-09-25T20:59:06.193Z,68.20
2022-09-25T21:01:35.962Z,68.20
2022-09-25T21:04:07.900Z,68.40
2022-09-25T21:06:37.229Z,68.30
2022-09-25T21:09:07.335Z,68.40
2022-09-25T21:11:40.284Z,68.60
2022-09-25T21:14:10.567Z,68.50
2022-09-25T21:16:37.754Z,68.50
2022-09-25T21:19:04.908Z,68.70
2022-09-25T21:21:33.348Z,68.70
2022-09-25T21:24:01.320Z,68.80
2022-09-25T21:26:29.359Z,68.80
2022-09-25T21:28:57.830Z,69.00
2022-09-25T21:31:27.627Z,69.10
2022-09-25T21:33:56.239Z,69.20
2022-09-25T21:36:24.519Z,69.30
2022-09-25T21:38:51.557Z,69.40
2022-09-25T21:41:20.890Z,69.30
2022-09-25T21:43:48.643Z,69.40
2022-09-25T21:46:18.523Z,69.50
2022-09-25T21:48:51.214Z,69.50
2022-09-25T21:51:19.221Z,69.80
2022-09-25T21:53:48.913Z,69.80
2022-09-25T21:56:22.598Z,69.90
2022-09-25T21:58:50.988Z,70.00
2022-09-25T22:01:27.418Z,70.00
2022-09-25T22:03:57.067Z,70.10
2022-09-25T22:06:36.141Z,70.10
2022-09-25T22:09:08.462Z,70.20
2022-09-25T22:11:35.795Z,70.30
2022-09-25T22:14:02.651Z,70.30
2022-09-25T22:16:32.163Z,70.30
2022-09-25T22:19:20.407Z,70.50
2022-09-25T22:21:49.107Z,70.50
2022-09-25T22:24:16.364Z,70.70
2022-09-25T22:26:46.843Z,70.70
2022-09-25T22:29:14.346Z,70.80
2022-09-25T22:31:44.281Z,70.90
2022-09-25T22:34:21.734Z,70.80
2022-09-25T22:36:49.309Z,70.90
2022-09-25T22:39:18.137Z,70.90
2022-09-25T22:41:48.408Z,71.00
2022-09-25T22:44:15.202Z,71.00
2022-09-25T22:46:41.883Z,70.90
2022-09-25T22:49:08.679Z,71.00
2022-09-25T22:51:35.449Z,71.10
2022-09-25T22:54:02.213Z,71.10
2022-09-25T22:56:34.170Z,71.10
2022-09-25T22:59:10.443Z,71.20
2022-09-25T23:01:39.567Z,71.20
2022-09-25T23:04:10.615Z,71.20
2022-09-25T23:06:37.725Z,71.40
2022-09-25T23:09:07.513Z,71.40
2022-09-25T23:11:34.609Z,71.40
2022-09-25T23:14:17.109Z,71.50
2022-09-25T23:16:45.250Z,71.50
2022-09-25T23:19:15.679Z,71.50
2022-09-25T23:21:45.692Z,71.50
2022-09-25T23:24:14.996Z,71.50
2022-09-25T23:26:41.896Z,71.50
2022-09-25T23:29:11.184Z,71.70
2022-09-25T23:31:38.375Z,71.70
2022-09-25T23:34:05.221Z,71.70
2022-09-25T23:36:32.088Z,71.70
2022-09-25T23:39:00.639Z,71.80
2022-09-25T23:41:28.928Z,71.80
2022-09-25T23:43:56.677Z,71.80
2022-09-25T23:46:26.256Z,71.90
2022-09-25T23:48:53.689Z,72.00
2022-09-25T23:51:22.845Z,72.10
2022-09-25T23:53:50.354Z,72.10
2022-09-25T23:56:25.070Z,72.10
2022-09-25T23:58:52.036Z,72.30
